Jepson Prairie Reserve, California Weather observations

Data are for 10 minute period ending at time listed.
 Day   Time   Solar   Ave.   Ave.  Ave.  Vector  Max.   Baro.   Total    
  of    of     Rad.   Air    Rel.  Wind   Wind   Wind  Press.  Precip.   
Year   Day            Temp.  Hum.  Speed  Dir.   Gust                    
2015   (PST)  Kw/m2    F      %     mph   deg.    mph    mb.     in.     
-------------------------------------------------------------------------
 182    0:00   0.00   75.1    41   18.0   210    21.9   1006.1    0.00 
 182    0:10   0.00   75.1    40   17.5   213    21.7   1006.1    0.00 
 182    0:20   0.00   74.9    40   16.7   216    21.7   1006.1    0.00 
 182    0:30   0.00   74.9    39   16.4   220    21.0   1006.1    0.00 
 182    0:40   0.00   75.0    38   18.5   221    23.5   1006.1    0.00 
 182    0:50   0.00   74.7    38   18.2   224    21.9   1006.1    0.00 
 182    1:00   0.00   73.6    40   17.1   218    21.6   1006.1    0.00 
 182    1:10   100.00  99999.0   99999  99999.0   99999   99999.0   99999.0   99999.00 
 182    1:20   100.00  99999.0   99999  99999.0   99999   99999.0   99999.0   99999.00 
 182    1:30   100.00  99999.0   99999  99999.0   99999   99999.0   99999.0   99999.00 
 182    1:40   100.00  99999.0   99999  99999.0   99999   99999.0   99999.0   99999.00 
 182    1:50   100.00  99999.0   99999  99999.0   99999   99999.0   99999.0   99999.00 
 182    2:00   100.00  99999.0   99999  99999.0   99999   99999.0   99999.0   99999.00 
 182    2:10   100.00  99999.0   99999  99999.0   99999   99999.0   99999.0   99999.00 
 182    2:20   0.00   71.4    44   19.2   222    26.5   1005.8    0.00 
 182    2:30   0.00   71.1    45   19.0   220    24.3   1005.8    0.00 
 182    2:40   0.00   71.0    45   18.5   222    24.0   1005.4    0.00 
 182    2:50   0.00   71.8    44   17.5   224    21.5   1005.4    0.00 
 182    3:00   0.00   72.8    41   15.2   217    19.0   1005.4    0.00 
 182    3:10   0.00   73.0    40   14.0   216    17.5   1005.4    0.00 
 182    3:20   0.00   71.4    46   15.7   211    20.2   1005.4    0.00 
 182    3:30   0.00   70.5    49   17.1   212    22.3   1005.4    0.00 
 182    3:40   0.00   71.3    47   16.8   211    20.6   1005.4    0.00 
 182    3:50   0.00   70.7    50   17.6   209    23.2   1005.4    0.00 
 182    4:00   0.00   70.2    50   14.8   210    18.9   1005.4    0.00 
 182    4:10   0.00   70.1    52   16.1   208    20.4   1005.4    0.00 
 182    4:20   0.00   70.1    56   17.1   206    22.3   1005.4    0.00 
 182    4:30   0.00   69.6    57   15.6   209    21.0   1005.4    0.00 
 182    4:40   0.00   69.2    58   17.4   208    20.9   1005.8    0.00 
 182    4:50   0.00   69.4    57   18.0   211    21.6   1005.8    0.00 
 182    5:00   0.01   70.0    56   17.0   211    21.3   1005.8    0.00 
 182    5:10   0.01   69.5    58   15.9   208    19.6   1006.1    0.00 
 182    5:20   0.03   69.6    57   15.8   207    19.7   1006.1    0.00 
 182    5:30   0.03   69.5    59   16.6   212    21.3   1006.1    0.00 
 182    5:40   0.04   69.2    60   15.6   213    19.4   1006.4    0.00 
 182    5:50   0.06   69.2    60   16.1   205    19.8   1006.4    0.00 
 182    6:00   0.07   69.2    60   16.3   208    20.3   1006.8    0.00 
 182    6:10   0.07   69.4    59   17.2   214    21.5   1006.8    0.00 
 182    6:20   0.07   70.1    57   14.2   217    18.8   1007.1    0.00 
 182    6:30   0.09   70.8    54   12.7   220    16.1   1007.1    0.00 
 182    6:40   0.19   71.9    51   13.3   224    18.0   1007.1    0.00 
 182    6:50   0.18   73.4    45   14.6   231    21.7   1007.1    0.00 
 182    7:00   0.30   73.8    44   16.5   232    20.5   1007.5    0.00 
 182    7:10   0.27   73.4    46   17.7   228    22.3   1007.5    0.00 
 182    7:20   0.22   72.3    49   17.1   228    22.8   1007.5    0.00 
 182    7:30   0.25   72.5    48   18.6   226    22.6   1007.5    0.00 
 182    7:40   0.35   74.6    45   17.6   226    22.6   1007.5    0.00 
 182    7:50   0.34   76.3    42   18.9   224    23.2   1007.5    0.00 
 182    8:00   0.34   77.9    40   16.0   215    19.7   1007.8    0.00 
 182    8:10   0.40   78.4    41   15.9   212    20.2   1007.8    0.00 
 182    8:20   0.38   78.9    41   16.7   214    20.1   1007.8    0.00 
 182    8:30   0.42   80.5    39   17.2   209    22.0   1007.8    0.00 
 182    8:40   0.41   81.1    39   15.5   209    18.9   1007.8    0.00 
 182    8:50   0.50   82.8    37   17.0   208    21.0   1007.8    0.00 
 182    9:00   0.45   83.4    37   17.2   208    21.2   1008.1    0.00 
 182    9:10   0.48   84.6    34   18.0   211    22.2   1008.1    0.00 
 182    9:20   0.63   85.4    35   17.5   206    21.1   1008.5    0.00 
 182    9:30   0.68   86.7    34   16.9   206    21.3   1008.5    0.00 
 182    9:40   0.63   87.4    31   17.1   222    21.9   1008.8    0.00 
 182    9:50   0.69   88.2    31   15.6   205    20.1   1009.1    0.00 
 182   10:00   0.68   88.5    29   16.6   199    21.0   1009.5    0.00 
 182   10:10   0.77   89.6    26   16.2   198    22.0   1009.5    0.00 
 182   10:20   0.76   90.6    27   15.5   199    20.5   1009.5    0.00 
 182   10:30   0.82   91.6    26   16.5   209    20.8   1009.5    0.00 
 182   10:40   0.74   92.5    23   16.1   215    20.8   1009.5    0.00 
 182   10:50   0.81   93.8    24   15.3   227    22.6   1009.5    0.00 
 182   11:00   0.83   93.4    26   16.3   228    21.4   1009.8    0.00 
 182   11:10   0.66   92.2    25   15.9   229    20.5   1009.8    0.00 
 182   11:20   0.59   91.8    24   15.9   229    21.3   1009.8    0.00 
 182   11:30   0.62   92.3    23   14.6   225    20.3   1009.8    0.00 
 182   11:40   0.64   92.4    23   15.9   224    21.0   1009.8    0.00 
 182   11:50   0.59   92.8    22   15.3   227    20.0   1009.8    0.00 
 182   12:00   0.67   92.8    22   16.7   232    20.5   1009.8    0.00 
 182   12:10   0.80   94.2    22   15.5   226    20.0   1009.8    0.00 
 182   12:20   0.70   94.3    23   15.6   230    20.8   1009.8    0.00 
 182   12:30   0.79   94.1    23   15.1   226    24.9   1009.8    0.00 
 182   12:40   0.78   94.4    22   15.1   222    20.3   1009.8    0.00 
 182   12:50   0.61   94.8    21   14.5   225    18.4   1009.8    0.00 
 182   13:00   0.75   95.3    19   14.7   226    19.6   1009.8    0.00 
 182   13:10   0.54   96.1    17   16.0   219    20.6   1009.8    0.00 
 182   13:20   0.82   96.0    16   16.2   216    20.8   1009.8    0.00 
 182   13:30   0.94   96.0    20   15.3   221    19.4   1009.8    0.00 
 182   13:40   0.77   96.2    19   16.8   217    21.2   1009.8    0.00 
 182   13:50   0.80   96.0    20   15.3   212    20.0   1009.8    0.00 
 182   14:00   0.47   96.9    20   16.8   216    21.7   1009.8    0.00 
 182   14:10   0.34   95.4    21   17.3   219    23.6   1009.8    0.00 
 182   14:20   0.49   95.7    21   16.7   217    22.6   1009.5    0.00 
 182   14:30   0.51   96.0    24   17.5   220    21.6   1009.5    0.00 
 182   14:40   0.63   95.4    23   17.0   229    21.3   1009.5    0.00 
 182   14:50   0.74   96.3    24   17.2   228    21.0   1009.1    0.00 
 182   15:00   0.51   94.1    26   17.6   225    21.0   1009.1    0.00 
 182   15:10   0.56   94.5    26   16.9   226    20.8   1009.1    0.00 
 182   15:20   0.37   94.5    26   17.2   227    22.2   1009.1    0.00 
 182   15:30   0.30   94.6    25   16.6   225    20.8   1008.8    0.00 
 182   15:40   0.67   96.0    24   16.8   220    21.3   1009.1    0.00 
 182   15:50   0.67   97.1    23   16.4   217    21.0   1009.1    0.00 
 182   16:00   0.49   96.8    23   16.7   227    21.6   1009.1    0.00 
 182   16:10   0.56   96.3    24   19.1   234    24.0   1008.8    0.00 
 182   16:20   0.43   96.0    24   19.4   236    22.0   1008.8    0.00 
 182   16:30   0.43   95.8    24   18.1   237    22.6   1008.5    0.00 
 182   16:40   0.23   95.2    25   17.8   240    22.1   1008.5    0.00 
 182   16:50   0.17   93.9    26   16.8   237    20.8   1008.5    0.00 
 182   17:00   0.14   92.1    28   15.6   231    20.0   1008.5    0.00 
 182   17:10   0.21   91.4    29   13.7   232    16.4   1008.1    0.00 
 182   17:20   0.33   92.4    28   14.6   235    17.5   1007.8    0.00 
 182   17:30   0.37   93.9    27   15.2   233    18.3   1007.8    0.00 
 182   17:40   0.26   94.0    26   16.3   227    19.6   1007.8    0.00 
 182   17:50   0.15   93.2    26   16.5   224    20.5   1007.5    0.00 
 182   18:00   0.18   92.6    26   14.9   230    17.8   1007.5    0.00 
 182   18:10   0.09   91.6    26   13.9   230    17.8   1007.1    0.00 
 182   18:20   0.07   90.6    27    9.7   237    15.8   1006.8    0.00 
 182   18:30   0.06   89.8    28    8.1   232    10.7   1006.8    0.00 
 182   18:40   0.05   89.6    28    6.2   236     7.7   1006.4    0.00 
 182   18:50   0.04   90.1    28    4.8   256     6.3   1006.4    0.00 
 182   19:00   0.03   91.9    26    6.2   304     7.4   1006.1    0.00 
 182   19:10   0.03   91.4    27    5.8   332     7.0   1006.1    0.00 
 182   19:20   0.01   91.2    27    2.4     8     4.6   1006.1    0.00 
 182   19:30   0.01   89.8    27   11.0   177    20.0   1006.4    0.00 
 182   19:40   0.00   87.0    30   11.7   161    15.9   1007.1    0.00 
 182   19:50   0.00   85.4    30   13.0   186    17.1   1007.1    0.00 
 182   20:00   0.00   83.5    31   14.3   188    17.8   1007.1    0.00 
 182   20:10   0.00   82.9    32   16.3   196    25.0   1006.8    0.00 
 182   20:20   0.00   82.3    34   20.0   197    24.9   1006.8    0.00 
 182   20:30   0.00   81.1    37   18.2   188    22.2   1007.1    0.00 
 182   20:40   0.00   79.8    38   19.4   191    23.6   1007.1    0.00 
 182   20:50   0.00   79.0    37   19.0   195    24.9   1007.1    0.00 
 182   21:00   0.00   78.0    38   16.7   194    20.6   1007.5    0.00 
 182   21:10   0.00   77.6    37   16.3   195    19.6   1007.8    0.00 
 182   21:20   0.00   78.2    34   15.8   197    19.4   1008.1    0.00 
 182   21:30   0.00   78.5    34   14.2   206    19.4   1008.1    0.00 
 182   21:40   0.00   78.4    35   12.6   208    16.5   1008.5    0.00 
 182   21:50   0.00   77.4    37   13.0   204    16.0   1008.5    0.00 
 182   22:00   0.00   76.8    38   14.1   207    16.7   1008.5    0.00 

Return to Jepson Prairie Reserve graphs page.


Western Regional Climate Center,wrcc@dri.edu